Huvudsida
METAR-TAF:

METAR-TAF

Flygplatser :

Calvinia, Sydafrika

latitud: 31-28-56S, longitud: 19-45-43E, höjd: 977 m

Aktuellt väderrapport

Denna rapport gjordes för 7 timmar och 10 minuter sedan, klockan 11:54 UTC
Vind 10 kt från väst/nordväst
Temperatur 25°C
Fuktighet 21%
Tryck 1023 hPa
Sikt 10 km eller mer
Inga moln under 1 500 m eller inga cumulonimbus

METAR: FACV 141154Z 30010KT CAVOK 25/01 Q1023

Tid: 21:04 (19:04 UTC)


TAF: saknas

Aktuella väderrapporter och prognoser från 4000 flygplatser (METAR- och TAF-rapporter).

De tillgängliga stationerna syns som gula och röda prickar på kartan.

För musen över prickarna för att se namnen på stationerna.

Klicka sedan för att få väderrapporter och prognoser.

För att ändra kartan: Klicka på de gröna knapparna med ett svart kors på för att zooma in; den gröna knappen med ett streck på för att zooma ut; eller på de gröna pilarna för angränsande kartor.


METAR-TAF: